sensor_id;sensor_type;location;lat;lon;timestamp;P1;durP1;ratioP1;P2;durP2;ratioP2
25854;SDS011;13680;49.936;11.344;2022-08-02T00:02:16;6.65;;;4.20;;
25854;SDS011;13680;49.936;11.344;2022-08-02T00:04:41;8.02;;;4.10;;
25854;SDS011;13680;49.936;11.344;2022-08-02T00:07:07;4.45;;;3.20;;
25854;SDS011;13680;49.936;11.344;2022-08-02T00:09:32;9.13;;;4.55;;
25854;SDS011;13680;49.936;11.344;2022-08-02T00:11:57;4.72;;;3.75;;
25854;SDS011;13680;49.936;11.344;2022-08-02T00:14:23;5.75;;;3.58;;
25854;SDS011;13680;49.936;11.344;2022-08-02T00:16:48;3.30;;;2.95;;
25854;SDS011;13680;49.936;11.344;2022-08-02T00:19:14;7.00;;;3.70;;
25854;SDS011;13680;49.936;11.344;2022-08-02T00:21:39;3.67;;;3.22;;
25854;SDS011;13680;49.936;11.344;2022-08-02T00:24:05;5.65;;;4.05;;
25854;SDS011;13680;49.936;11.344;2022-08-02T00:26:30;6.60;;;4.40;;
25854;SDS011;13680;49.936;11.344;2022-08-02T00:28:55;3.90;;;3.33;;
25854;SDS011;13680;49.936;11.344;2022-08-02T00:31:21;5.53;;;2.85;;
25854;SDS011;13680;49.936;11.344;2022-08-02T00:33:46;6.10;;;3.03;;
25854;SDS011;13680;49.936;11.344;2022-08-02T00:36:12;5.18;;;3.35;;
25854;SDS011;13680;49.936;11.344;2022-08-02T00:38:37;7.75;;;3.45;;
25854;SDS011;13680;49.936;11.344;2022-08-02T00:41:02;6.32;;;3.80;;
25854;SDS011;13680;49.936;11.344;2022-08-02T00:43:28;4.55;;;3.10;;
25854;SDS011;13680;49.936;11.344;2022-08-02T00:45:53;4.32;;;3.15;;
25854;SDS011;13680;49.936;11.344;2022-08-02T00:48:18;8.02;;;4.35;;
25854;SDS011;13680;49.936;11.344;2022-08-02T00:50:44;9.15;;;3.97;;
25854;SDS011;13680;49.936;11.344;2022-08-02T00:53:09;11.05;;;4.00;;
25854;SDS011;13680;49.936;11.344;2022-08-02T00:55:35;5.72;;;3.22;;
25854;SDS011;13680;49.936;11.344;2022-08-02T00:58:02;3.92;;;2.65;;
25854;SDS011;13680;49.936;11.344;2022-08-02T01:00:28;5.07;;;4.10;;
25854;SDS011;13680;49.936;11.344;2022-08-02T01:02:53;6.95;;;3.72;;
25854;SDS011;13680;49.936;11.344;2022-08-02T01:05:18;5.20;;;3.38;;
25854;SDS011;13680;49.936;11.344;2022-08-02T01:07:44;4.65;;;3.72;;
25854;SDS011;13680;49.936;11.344;2022-08-02T01:10:10;8.60;;;3.75;;
25854;SDS011;13680;49.936;11.344;2022-08-02T01:12:35;5.63;;;3.22;;
25854;SDS011;13680;49.936;11.344;2022-08-02T01:15:03;4.40;;;3.38;;
25854;SDS011;13680;49.936;11.344;2022-08-02T01:23:20;5.93;;;3.05;;
25854;SDS011;13680;49.936;11.344;2022-08-02T01:31:03;2.60;;;2.38;;
25854;SDS011;13680;49.936;11.344;2022-08-02T01:33:39;3.30;;;2.58;;
25854;SDS011;13680;49.936;11.344;2022-08-02T01:36:09;7.57;;;2.88;;
25854;SDS011;13680;49.936;11.344;2022-08-02T01:38:42;4.28;;;2.90;;
25854;SDS011;13680;49.936;11.344;2022-08-02T01:41:21;4.60;;;3.43;;
25854;SDS011;13680;49.936;11.344;2022-08-02T01:43:51;4.55;;;3.35;;
25854;SDS011;13680;49.936;11.344;2022-08-02T01:46:20;3.88;;;3.20;;
25854;SDS011;13680;49.936;11.344;2022-08-02T01:48:48;3.47;;;2.95;;
25854;SDS011;13680;49.936;11.344;2022-08-02T01:51:17;4.40;;;3.22;;
25854;SDS011;13680;49.936;11.344;2022-08-02T01:54:04;3.72;;;3.28;;
25854;SDS011;13680;49.936;11.344;2022-08-02T01:56:31;4.03;;;3.13;;
25854;SDS011;13680;49.936;11.344;2022-08-02T01:58:58;6.30;;;4.00;;
25854;SDS011;13680;49.936;11.344;2022-08-02T02:01:25;5.25;;;2.90;;
25854;SDS011;13680;49.936;11.344;2022-08-02T02:03:51;4.93;;;2.97;;
25854;SDS011;13680;49.936;11.344;2022-08-02T02:06:16;4.40;;;3.03;;
25854;SDS011;13680;49.936;11.344;2022-08-02T02:08:43;3.92;;;3.13;;
25854;SDS011;13680;49.936;11.344;2022-08-02T02:11:09;4.68;;;3.33;;
25854;SDS011;13680;49.936;11.344;2022-08-02T02:13:35;11.95;;;3.10;;
25854;SDS011;13680;49.936;11.344;2022-08-02T02:16:06;5.07;;;2.97;;
25854;SDS011;13680;49.936;11.344;2022-08-02T02:18:33;3.17;;;2.72;;
25854;SDS011;13680;49.936;11.344;2022-08-02T02:21:03;3.58;;;3.10;;
25854;SDS011;13680;49.936;11.344;2022-08-02T02:23:28;3.50;;;3.20;;
25854;SDS011;13680;49.936;11.344;2022-08-02T02:25:53;5.30;;;3.08;;
25854;SDS011;13680;49.936;11.344;2022-08-02T02:28:21;7.13;;;2.92;;
25854;SDS011;13680;49.936;11.344;2022-08-02T02:30:54;3.50;;;2.83;;
25854;SDS011;13680;49.936;11.344;2022-08-02T02:33:27;2.80;;;2.50;;
25854;SDS011;13680;49.936;11.344;2022-08-02T02:35:55;3.40;;;2.33;;
25854;SDS011;13680;49.936;11.344;2022-08-02T02:38:23;3.40;;;2.88;;
25854;SDS011;13680;49.936;11.344;2022-08-02T02:40:51;7.28;;;3.05;;
25854;SDS011;13680;49.936;11.344;2022-08-02T02:43:17;3.47;;;2.90;;
25854;SDS011;13680;49.936;11.344;2022-08-02T02:45:44;4.03;;;2.83;;
25854;SDS011;13680;49.936;11.344;2022-08-02T02:48:11;3.97;;;2.65;;
25854;SDS011;13680;49.936;11.344;2022-08-02T02:50:40;6.07;;;2.80;;
25854;SDS011;13680;49.936;11.344;2022-08-02T02:53:06;5.88;;;3.30;;
25854;SDS011;13680;49.936;11.344;2022-08-02T02:55:34;4.10;;;2.53;;
25854;SDS011;13680;49.936;11.344;2022-08-02T02:58:00;4.38;;;2.65;;
25854;SDS011;13680;49.936;11.344;2022-08-02T03:00:26;3.15;;;2.85;;
25854;SDS011;13680;49.936;11.344;2022-08-02T03:03:16;4.95;;;2.38;;
25854;SDS011;13680;49.936;11.344;2022-08-02T03:05:42;10.52;;;3.00;;
25854;SDS011;13680;49.936;11.344;2022-08-02T03:08:07;3.67;;;2.30;;
25854;SDS011;13680;49.936;11.344;2022-08-02T03:10:32;2.67;;;2.45;;
25854;SDS011;13680;49.936;11.344;2022-08-02T03:12:58;2.45;;;2.25;;
25854;SDS011;13680;49.936;11.344;2022-08-02T03:15:25;4.28;;;2.33;;
25854;SDS011;13680;49.936;11.344;2022-08-02T03:17:52;3.45;;;2.22;;
25854;SDS011;13680;49.936;11.344;2022-08-02T03:20:19;3.08;;;2.50;;
25854;SDS011;13680;49.936;11.344;2022-08-02T03:22:45;5.72;;;2.47;;
25854;SDS011;13680;49.936;11.344;2022-08-02T03:25:11;2.47;;;2.25;;
25854;SDS011;13680;49.936;11.344;2022-08-02T03:27:37;2.65;;;2.00;;
25854;SDS011;13680;49.936;11.344;2022-08-02T03:30:04;3.08;;;2.78;;
25854;SDS011;13680;49.936;11.344;2022-08-02T03:32:31;3.70;;;2.40;;
25854;SDS011;13680;49.936;11.344;2022-08-02T03:34:58;3.88;;;2.60;;
25854;SDS011;13680;49.936;11.344;2022-08-02T03:37:25;3.60;;;2.20;;
25854;SDS011;13680;49.936;11.344;2022-08-02T03:39:51;7.18;;;2.15;;
25854;SDS011;13680;49.936;11.344;2022-08-02T03:42:18;6.65;;;1.95;;
25854;SDS011;13680;49.936;11.344;2022-08-02T03:44:48;6.63;;;3.03;;
25854;SDS011;13680;49.936;11.344;2022-08-02T03:47:14;2.80;;;2.50;;
25854;SDS011;13680;49.936;11.344;2022-08-02T03:49:41;4.10;;;2.10;;
25854;SDS011;13680;49.936;11.344;2022-08-02T03:52:07;5.03;;;3.08;;
25854;SDS011;13680;49.936;11.344;2022-08-02T03:54:33;4.13;;;3.20;;
25854;SDS011;13680;49.936;11.344;2022-08-02T03:56:59;4.28;;;2.85;;
25854;SDS011;13680;49.936;11.344;2022-08-02T03:59:24;6.22;;;3.10;;
25854;SDS011;13680;49.936;11.344;2022-08-02T04:01:50;5.07;;;2.70;;
25854;SDS011;13680;49.936;11.344;2022-08-02T04:04:15;4.32;;;3.05;;
25854;SDS011;13680;49.936;11.344;2022-08-02T04:06:40;5.07;;;2.70;;
25854;SDS011;13680;49.936;11.344;2022-08-02T04:09:06;4.88;;;2.65;;
25854;SDS011;13680;49.936;11.344;2022-08-02T04:11:31;4.82;;;2.90;;
25854;SDS011;13680;49.936;11.344;2022-08-02T04:14:09;5.32;;;2.83;;
25854;SDS011;13680;49.936;11.344;2022-08-02T04:19:10;3.13;;;2.50;;
25854;SDS011;13680;49.936;11.344;2022-08-02T04:21:39;3.33;;;2.55;;
25854;SDS011;13680;49.936;11.344;2022-08-02T04:24:06;3.20;;;2.90;;
25854;SDS011;13680;49.936;11.344;2022-08-02T04:26:33;6.93;;;2.60;;
25854;SDS011;13680;49.936;11.344;2022-08-02T04:29:00;3.50;;;2.60;;
25854;SDS011;13680;49.936;11.344;2022-08-02T04:31:26;2.85;;;2.53;;
25854;SDS011;13680;49.936;11.344;2022-08-02T04:33:52;3.58;;;2.60;;
25854;SDS011;13680;49.936;11.344;2022-08-02T04:36:18;5.40;;;2.47;;
25854;SDS011;13680;49.936;11.344;2022-08-02T04:38:44;4.45;;;2.28;;
25854;SDS011;13680;49.936;11.344;2022-08-02T04:41:12;5.95;;;2.40;;
25854;SDS011;13680;49.936;11.344;2022-08-02T04:43:38;5.00;;;2.80;;
25854;SDS011;13680;49.936;11.344;2022-08-02T04:46:03;5.97;;;2.38;;
25854;SDS011;13680;49.936;11.344;2022-08-02T04:48:29;3.08;;;2.55;;
25854;SDS011;13680;49.936;11.344;2022-08-02T04:50:54;3.15;;;2.75;;
25854;SDS011;13680;49.936;11.344;2022-08-02T04:53:20;3.63;;;2.85;;
25854;SDS011;13680;49.936;11.344;2022-08-02T04:55:46;7.20;;;2.85;;
25854;SDS011;13680;49.936;11.344;2022-08-02T04:58:12;8.75;;;2.50;;
25854;SDS011;13680;49.936;11.344;2022-08-02T05:00:37;4.32;;;2.78;;
25854;SDS011;13680;49.936;11.344;2022-08-02T05:03:03;4.00;;;2.78;;
25854;SDS011;13680;49.936;11.344;2022-08-02T05:05:28;2.85;;;2.58;;
25854;SDS011;13680;49.936;11.344;2022-08-02T05:07:54;3.95;;;3.35;;
25854;SDS011;13680;49.936;11.344;2022-08-02T05:10:20;3.13;;;2.50;;
25854;SDS011;13680;49.936;11.344;2022-08-02T05:12:45;3.58;;;2.80;;
25854;SDS011;13680;49.936;11.344;2022-08-02T05:15:11;6.50;;;2.67;;
25854;SDS011;13680;49.936;11.344;2022-08-02T05:17:38;6.07;;;2.85;;
25854;SDS011;13680;49.936;11.344;2022-08-02T05:20:04;6.80;;;2.70;;
25854;SDS011;13680;49.936;11.344;2022-08-02T05:22:30;3.45;;;2.70;;
25854;SDS011;13680;49.936;11.344;2022-08-02T05:24:55;6.78;;;3.35;;
25854;SDS011;13680;49.936;11.344;2022-08-02T05:27:21;3.00;;;2.72;;
25854;SDS011;13680;49.936;11.344;2022-08-02T05:29:46;4.45;;;2.70;;
25854;SDS011;13680;49.936;11.344;2022-08-02T05:32:11;4.07;;;3.17;;
25854;SDS011;13680;49.936;11.344;2022-08-02T05:34:37;3.50;;;3.17;;
25854;SDS011;13680;49.936;11.344;2022-08-02T05:37:02;3.47;;;2.53;;
25854;SDS011;13680;49.936;11.344;2022-08-02T05:39:28;3.78;;;2.88;;
25854;SDS011;13680;49.936;11.344;2022-08-02T05:41:53;5.00;;;3.30;;
25854;SDS011;13680;49.936;11.344;2022-08-02T05:44:19;3.80;;;3.17;;
25854;SDS011;13680;49.936;11.344;2022-08-02T05:46:44;3.75;;;3.45;;
25854;SDS011;13680;49.936;11.344;2022-08-02T05:49:09;7.53;;;3.72;;
25854;SDS011;13680;49.936;11.344;2022-08-02T05:51:36;6.15;;;3.33;;
25854;SDS011;13680;49.936;11.344;2022-08-02T05:57:00;4.60;;;3.35;;
25854;SDS011;13680;49.936;11.344;2022-08-02T06:02:32;5.68;;;3.70;;
25854;SDS011;13680;49.936;11.344;2022-08-02T06:05:13;4.97;;;3.33;;
25854;SDS011;13680;49.936;11.344;2022-08-02T06:07:41;6.15;;;3.53;;
25854;SDS011;13680;49.936;11.344;2022-08-02T06:10:09;3.97;;;3.50;;
25854;SDS011;13680;49.936;11.344;2022-08-02T06:12:53;3.83;;;3.42;;
25854;SDS011;13680;49.936;11.344;2022-08-02T06:15:25;3.78;;;2.65;;
25854;SDS011;13680;49.936;11.344;2022-08-02T06:17:51;5.68;;;2.78;;
25854;SDS011;13680;49.936;11.344;2022-08-02T06:20:16;3.30;;;2.53;;
25854;SDS011;13680;49.936;11.344;2022-08-02T06:22:44;5.90;;;2.40;;
25854;SDS011;13680;49.936;11.344;2022-08-02T06:25:10;3.30;;;2.30;;
25854;SDS011;13680;49.936;11.344;2022-08-02T06:27:37;3.53;;;2.22;;
25854;SDS011;13680;49.936;11.344;2022-08-02T06:30:04;4.22;;;2.28;;
25854;SDS011;13680;49.936;11.344;2022-08-02T06:32:31;4.35;;;2.60;;
25854;SDS011;13680;49.936;11.344;2022-08-02T06:34:58;5.05;;;3.03;;
25854;SDS011;13680;49.936;11.344;2022-08-02T06:40:13;2.90;;;2.38;;
25854;SDS011;13680;49.936;11.344;2022-08-02T06:45:37;2.50;;;1.88;;
25854;SDS011;13680;49.936;11.344;2022-08-02T06:48:02;7.78;;;2.20;;
25854;SDS011;13680;49.936;11.344;2022-08-02T06:50:29;3.60;;;2.20;;
25854;SDS011;13680;49.936;11.344;2022-08-02T06:52:55;2.45;;;1.90;;
25854;SDS011;13680;49.936;11.344;2022-08-02T06:55:20;3.95;;;2.10;;
25854;SDS011;13680;49.936;11.344;2022-08-02T06:57:46;2.83;;;2.20;;
25854;SDS011;13680;49.936;11.344;2022-08-02T07:00:11;2.50;;;1.80;;
25854;SDS011;13680;49.936;11.344;2022-08-02T07:02:37;1.67;;;1.50;;
25854;SDS011;13680;49.936;11.344;2022-08-02T07:05:06;4.05;;;1.85;;
25854;SDS011;13680;49.936;11.344;2022-08-02T07:07:32;1.83;;;1.60;;
25854;SDS011;13680;49.936;11.344;2022-08-02T07:09:58;2.60;;;1.85;;
25854;SDS011;13680;49.936;11.344;2022-08-02T07:12:24;2.47;;;1.80;;
25854;SDS011;13680;49.936;11.344;2022-08-02T07:14:50;3.75;;;1.60;;
25854;SDS011;13680;49.936;11.344;2022-08-02T07:17:15;1.95;;;1.55;;
25854;SDS011;13680;49.936;11.344;2022-08-02T07:19:41;4.43;;;1.60;;
25854;SDS011;13680;49.936;11.344;2022-08-02T07:22:06;1.80;;;1.58;;
25854;SDS011;13680;49.936;11.344;2022-08-02T07:24:31;3.28;;;1.75;;
25854;SDS011;13680;49.936;11.344;2022-08-02T07:26:57;4.10;;;1.45;;
25854;SDS011;13680;49.936;11.344;2022-08-02T07:29:23;2.28;;;1.70;;
25854;SDS011;13680;49.936;11.344;2022-08-02T07:31:48;5.53;;;1.98;;
25854;SDS011;13680;49.936;11.344;2022-08-02T07:34:14;1.60;;;1.30;;
25854;SDS011;13680;49.936;11.344;2022-08-02T07:36:39;4.38;;;1.75;;
25854;SDS011;13680;49.936;11.344;2022-08-02T07:39:04;2.35;;;1.48;;
25854;SDS011;13680;49.936;11.344;2022-08-02T07:41:30;1.60;;;1.50;;
25854;SDS011;13680;49.936;11.344;2022-08-02T07:43:55;1.98;;;1.60;;
25854;SDS011;13680;49.936;11.344;2022-08-02T07:46:21;1.95;;;1.55;;
25854;SDS011;13680;49.936;11.344;2022-08-02T07:48:46;1.65;;;1.50;;
25854;SDS011;13680;49.936;11.344;2022-08-02T07:51:13;3.72;;;2.22;;
25854;SDS011;13680;49.936;11.344;2022-08-02T07:53:39;3.15;;;1.38;;
25854;SDS011;13680;49.936;11.344;2022-08-02T07:56:04;4.53;;;1.70;;
25854;SDS011;13680;49.936;11.344;2022-08-02T07:58:29;4.47;;;1.75;;
25854;SDS011;13680;49.936;11.344;2022-08-02T08:00:55;1.63;;;1.48;;
25854;SDS011;13680;49.936;11.344;2022-08-02T08:03:20;2.70;;;1.70;;
25854;SDS011;13680;49.936;11.344;2022-08-02T08:05:46;3.67;;;1.73;;
25854;SDS011;13680;49.936;11.344;2022-08-02T08:08:11;4.95;;;1.63;;
25854;SDS011;13680;49.936;11.344;2022-08-02T08:10:41;3.92;;;2.13;;
25854;SDS011;13680;49.936;11.344;2022-08-02T08:13:06;2.05;;;1.88;;
25854;SDS011;13680;49.936;11.344;2022-08-02T08:15:32;2.67;;;1.70;;
25854;SDS011;13680;49.936;11.344;2022-08-02T08:17:57;2.70;;;1.73;;
25854;SDS011;13680;49.936;11.344;2022-08-02T08:20:22;3.50;;;1.80;;
25854;SDS011;13680;49.936;11.344;2022-08-02T08:22:48;5.10;;;1.95;;
25854;SDS011;13680;49.936;11.344;2022-08-02T08:25:14;3.25;;;1.80;;
25854;SDS011;13680;49.936;11.344;2022-08-02T08:27:46;2.25;;;1.75;;
25854;SDS011;13680;49.936;11.344;2022-08-02T08:30:12;3.95;;;2.10;;
25854;SDS011;13680;49.936;11.344;2022-08-02T08:32:37;2.38;;;1.85;;
25854;SDS011;13680;49.936;11.344;2022-08-02T08:35:03;4.47;;;1.80;;
25854;SDS011;13680;49.936;11.344;2022-08-02T08:37:37;3.83;;;1.90;;
25854;SDS011;13680;49.936;11.344;2022-08-02T08:40:09;4.25;;;2.25;;
25854;SDS011;13680;49.936;11.344;2022-08-02T08:42:36;5.93;;;2.28;;
25854;SDS011;13680;49.936;11.344;2022-08-02T08:45:03;2.80;;;2.20;;
25854;SDS011;13680;49.936;11.344;2022-08-02T08:49:58;3.80;;;2.50;;
25854;SDS011;13680;49.936;11.344;2022-08-02T08:52:28;5.47;;;2.35;;
25854;SDS011;13680;49.936;11.344;2022-08-02T08:55:00;3.65;;;2.17;;
25854;SDS011;13680;49.936;11.344;2022-08-02T08:57:27;4.10;;;2.38;;
25854;SDS011;13680;49.936;11.344;2022-08-02T08:59:54;2.92;;;2.60;;
25854;SDS011;13680;49.936;11.344;2022-08-02T09:02:20;5.80;;;2.55;;
25854;SDS011;13680;49.936;11.344;2022-08-02T09:04:47;6.38;;;2.50;;
25854;SDS011;13680;49.936;11.344;2022-08-02T09:07:14;3.45;;;2.47;;
25854;SDS011;13680;49.936;11.344;2022-08-02T09:09:39;7.95;;;2.58;;
25854;SDS011;13680;49.936;11.344;2022-08-02T09:12:14;6.05;;;2.33;;
25854;SDS011;13680;49.936;11.344;2022-08-02T09:14:41;2.83;;;2.00;;
25854;SDS011;13680;49.936;11.344;2022-08-02T09:17:07;4.93;;;2.30;;
25854;SDS011;13680;49.936;11.344;2022-08-02T09:19:34;3.25;;;2.00;;
25854;SDS011;13680;49.936;11.344;2022-08-02T09:22:02;5.63;;;2.33;;
25854;SDS011;13680;49.936;11.344;2022-08-02T09:24:39;4.10;;;2.13;;
25854;SDS011;13680;49.936;11.344;2022-08-02T09:27:13;5.10;;;2.53;;
25854;SDS011;13680;49.936;11.344;2022-08-02T09:29:40;2.90;;;2.30;;
25854;SDS011;13680;49.936;11.344;2022-08-02T09:32:10;4.05;;;2.50;;
25854;SDS011;13680;49.936;11.344;2022-08-02T09:34:46;3.30;;;2.45;;
25854;SDS011;13680;49.936;11.344;2022-08-02T09:37:23;3.45;;;2.30;;
25854;SDS011;13680;49.936;11.344;2022-08-02T09:39:52;3.67;;;2.50;;
25854;SDS011;13680;49.936;11.344;2022-08-02T09:42:18;3.17;;;2.40;;
25854;SDS011;13680;49.936;11.344;2022-08-02T09:44:55;2.70;;;2.10;;
25854;SDS011;13680;49.936;11.344;2022-08-02T09:47:22;4.85;;;2.40;;
25854;SDS011;13680;49.936;11.344;2022-08-02T09:49:49;5.78;;;2.15;;
25854;SDS011;13680;49.936;11.344;2022-08-02T09:52:15;3.05;;;2.30;;
25854;SDS011;13680;49.936;11.344;2022-08-02T09:54:46;3.08;;;2.30;;
25854;SDS011;13680;49.936;11.344;2022-08-02T09:57:11;3.03;;;2.28;;
25854;SDS011;13680;49.936;11.344;2022-08-02T09:59:56;3.83;;;1.90;;
25854;SDS011;13680;49.936;11.344;2022-08-02T10:02:22;4.35;;;2.30;;
25854;SDS011;13680;49.936;11.344;2022-08-02T10:04:48;4.88;;;2.28;;
25854;SDS011;13680;49.936;11.344;2022-08-02T10:07:14;4.10;;;2.10;;
25854;SDS011;13680;49.936;11.344;2022-08-02T10:09:41;3.72;;;2.33;;
25854;SDS011;13680;49.936;11.344;2022-08-02T10:12:07;2.70;;;2.30;;
25854;SDS011;13680;49.936;11.344;2022-08-02T10:14:33;2.25;;;2.00;;
25854;SDS011;13680;49.936;11.344;2022-08-02T10:16:59;2.80;;;2.20;;
25854;SDS011;13680;49.936;11.344;2022-08-02T10:19:25;3.83;;;2.25;;
25854;SDS011;13680;49.936;11.344;2022-08-02T10:24:26;3.28;;;1.92;;
25854;SDS011;13680;49.936;11.344;2022-08-02T10:26:54;2.75;;;2.00;;
25854;SDS011;13680;49.936;11.344;2022-08-02T10:29:33;2.63;;;1.98;;
25854;SDS011;13680;49.936;11.344;2022-08-02T10:32:03;3.08;;;2.20;;
25854;SDS011;13680;49.936;11.344;2022-08-02T10:34:35;2.70;;;2.00;;
25854;SDS011;13680;49.936;11.344;2022-08-02T10:37:05;2.90;;;2.45;;
25854;SDS011;13680;49.936;11.344;2022-08-02T10:39:42;3.30;;;2.13;;
25854;SDS011;13680;49.936;11.344;2022-08-02T10:42:09;5.68;;;2.25;;
25854;SDS011;13680;49.936;11.344;2022-08-02T10:44:35;3.13;;;2.08;;
25854;SDS011;13680;49.936;11.344;2022-08-02T10:49:47;4.40;;;2.17;;
25854;SDS011;13680;49.936;11.344;2022-08-02T10:52:26;6.68;;;2.22;;
25854;SDS011;13680;49.936;11.344;2022-08-02T10:54:57;4.10;;;2.10;;
25854;SDS011;13680;49.936;11.344;2022-08-02T10:57:27;4.30;;;2.20;;
25854;SDS011;13680;49.936;11.344;2022-08-02T11:02:43;4.22;;;2.33;;
25854;SDS011;13680;49.936;11.344;2022-08-02T11:07:42;2.55;;;2.13;;
25854;SDS011;13680;49.936;11.344;2022-08-02T11:15:22;2.90;;;1.63;;
25854;SDS011;13680;49.936;11.344;2022-08-02T11:17:58;3.80;;;1.92;;
25854;SDS011;13680;49.936;11.344;2022-08-02T11:20:24;3.45;;;2.08;;
25854;SDS011;13680;49.936;11.344;2022-08-02T11:22:51;3.10;;;1.90;;
25854;SDS011;13680;49.936;11.344;2022-08-02T11:25:28;4.07;;;1.92;;
25854;SDS011;13680;49.936;11.344;2022-08-02T11:27:59;3.33;;;1.50;;
25854;SDS011;13680;49.936;11.344;2022-08-02T11:30:33;1.75;;;1.58;;
25854;SDS011;13680;49.936;11.344;2022-08-02T11:32:59;1.50;;;1.40;;
25854;SDS011;13680;49.936;11.344;2022-08-02T11:35:35;2.53;;;1.38;;
25854;SDS011;13680;49.936;11.344;2022-08-02T11:38:12;2.67;;;1.65;;
25854;SDS011;13680;49.936;11.344;2022-08-02T11:40:39;4.50;;;1.50;;
25854;SDS011;13680;49.936;11.344;2022-08-02T11:43:14;3.72;;;1.33;;
25854;SDS011;13680;49.936;11.344;2022-08-02T11:45:40;2.03;;;1.48;;
25854;SDS011;13680;49.936;11.344;2022-08-02T11:48:06;1.85;;;1.48;;
25854;SDS011;13680;49.936;11.344;2022-08-02T11:50:31;2.83;;;1.60;;
25854;SDS011;13680;49.936;11.344;2022-08-02T11:52:56;1.65;;;1.50;;
25854;SDS011;13680;49.936;11.344;2022-08-02T11:55:25;2.38;;;1.50;;
25854;SDS011;13680;49.936;11.344;2022-08-02T11:58:01;4.43;;;1.88;;
25854;SDS011;13680;49.936;11.344;2022-08-02T12:00:28;3.97;;;1.70;;
25854;SDS011;13680;49.936;11.344;2022-08-02T12:02:54;3.92;;;1.50;;
25854;SDS011;13680;49.936;11.344;2022-08-02T12:05:20;3.55;;;1.80;;
25854;SDS011;13680;49.936;11.344;2022-08-02T12:07:48;3.13;;;1.80;;
25854;SDS011;13680;49.936;11.344;2022-08-02T12:10:17;2.97;;;1.90;;
25854;SDS011;13680;49.936;11.344;2022-08-02T12:12:55;1.88;;;1.65;;
25854;SDS011;13680;49.936;11.344;2022-08-02T12:17:59;7.93;;;1.98;;
25854;SDS011;13680;49.936;11.344;2022-08-02T12:20:44;2.63;;;1.77;;
25854;SDS011;13680;49.936;11.344;2022-08-02T12:23:09;2.15;;;1.52;;
25854;SDS011;13680;49.936;11.344;2022-08-02T12:25:35;1.85;;;1.75;;
25854;SDS011;13680;49.936;11.344;2022-08-02T12:28:14;3.83;;;1.90;;
25854;SDS011;13680;49.936;11.344;2022-08-02T12:30:51;3.58;;;1.40;;
25854;SDS011;13680;49.936;11.344;2022-08-02T12:33:20;4.13;;;1.65;;
25854;SDS011;13680;49.936;11.344;2022-08-02T12:35:47;4.68;;;1.60;;
25854;SDS011;13680;49.936;11.344;2022-08-02T12:38:13;3.13;;;1.70;;
25854;SDS011;13680;49.936;11.344;2022-08-02T12:40:38;1.60;;;1.45;;
25854;SDS011;13680;49.936;11.344;2022-08-02T12:43:04;3.63;;;1.50;;
25854;SDS011;13680;49.936;11.344;2022-08-02T12:45:32;3.67;;;1.60;;
25854;SDS011;13680;49.936;11.344;2022-08-02T12:48:09;4.47;;;1.75;;
25854;SDS011;13680;49.936;11.344;2022-08-02T12:50:35;1.63;;;1.52;;
25854;SDS011;13680;49.936;11.344;2022-08-02T12:53:15;3.00;;;1.27;;
25854;SDS011;13680;49.936;11.344;2022-08-02T12:55:48;2.72;;;1.67;;
25854;SDS011;13680;49.936;11.344;2022-08-02T12:58:19;1.73;;;1.40;;
25854;SDS011;13680;49.936;11.344;2022-08-02T13:01:05;2.45;;;1.60;;
25854;SDS011;13680;49.936;11.344;2022-08-02T13:03:30;1.70;;;1.23;;
25854;SDS011;13680;49.936;11.344;2022-08-02T13:05:55;2.22;;;1.60;;
25854;SDS011;13680;49.936;11.344;2022-08-02T13:08:20;1.80;;;1.70;;
25854;SDS011;13680;49.936;11.344;2022-08-02T13:10:46;3.67;;;1.75;;
25854;SDS011;13680;49.936;11.344;2022-08-02T13:13:11;2.50;;;1.50;;
25854;SDS011;13680;49.936;11.344;2022-08-02T13:15:36;2.53;;;1.88;;
25854;SDS011;13680;49.936;11.344;2022-08-02T13:18:02;3.05;;;1.63;;
25854;SDS011;13680;49.936;11.344;2022-08-02T13:20:28;2.17;;;1.30;;
25854;SDS011;13680;49.936;11.344;2022-08-02T13:22:53;1.83;;;1.73;;
25854;SDS011;13680;49.936;11.344;2022-08-02T13:25:19;3.08;;;1.77;;
25854;SDS011;13680;49.936;11.344;2022-08-02T13:27:47;1.67;;;1.30;;
25854;SDS011;13680;49.936;11.344;2022-08-02T13:30:13;3.05;;;1.60;;
25854;SDS011;13680;49.936;11.344;2022-08-02T13:32:38;2.45;;;1.60;;
25854;SDS011;13680;49.936;11.344;2022-08-02T13:35:04;1.73;;;1.40;;
25854;SDS011;13680;49.936;11.344;2022-08-02T13:37:29;1.45;;;1.35;;
25854;SDS011;13680;49.936;11.344;2022-08-02T13:39:55;3.40;;;1.40;;
25854;SDS011;13680;49.936;11.344;2022-08-02T13:42:20;3.42;;;1.30;;
25854;SDS011;13680;49.936;11.344;2022-08-02T13:44:47;1.70;;;1.48;;
25854;SDS011;13680;49.936;11.344;2022-08-02T13:47:12;2.17;;;1.50;;
25854;SDS011;13680;49.936;11.344;2022-08-02T13:49:38;2.15;;;1.50;;
25854;SDS011;13680;49.936;11.344;2022-08-02T13:52:03;1.75;;;1.65;;
25854;SDS011;13680;49.936;11.344;2022-08-02T13:54:29;1.67;;;1.58;;
25854;SDS011;13680;49.936;11.344;2022-08-02T13:56:55;2.35;;;1.63;;
25854;SDS011;13680;49.936;11.344;2022-08-02T13:59:20;2.63;;;1.52;;
25854;SDS011;13680;49.936;11.344;2022-08-02T14:01:45;2.03;;;1.77;;
25854;SDS011;13680;49.936;11.344;2022-08-02T14:04:11;2.67;;;1.30;;
25854;SDS011;13680;49.936;11.344;2022-08-02T14:06:36;2.25;;;1.40;;
25854;SDS011;13680;49.936;11.344;2022-08-02T14:09:02;5.60;;;1.88;;
25854;SDS011;13680;49.936;11.344;2022-08-02T14:11:27;2.92;;;1.63;;
25854;SDS011;13680;49.936;11.344;2022-08-02T14:13:55;3.70;;;1.63;;
25854;SDS011;13680;49.936;11.344;2022-08-02T14:16:20;4.35;;;1.55;;
25854;SDS011;13680;49.936;11.344;2022-08-02T14:18:46;5.13;;;1.52;;
25854;SDS011;13680;49.936;11.344;2022-08-02T14:21:11;4.93;;;2.00;;
25854;SDS011;13680;49.936;11.344;2022-08-02T14:23:36;1.40;;;1.30;;
25854;SDS011;13680;49.936;11.344;2022-08-02T14:26:02;4.57;;;1.80;;
25854;SDS011;13680;49.936;11.344;2022-08-02T14:28:29;1.75;;;1.40;;
25854;SDS011;13680;49.936;11.344;2022-08-02T14:30:54;2.42;;;1.25;;
25854;SDS011;13680;49.936;11.344;2022-08-02T14:33:20;2.53;;;1.40;;
25854;SDS011;13680;49.936;11.344;2022-08-02T14:35:45;2.90;;;1.20;;
25854;SDS011;13680;49.936;11.344;2022-08-02T14:38:10;3.42;;;1.52;;
25854;SDS011;13680;49.936;11.344;2022-08-02T14:40:36;1.58;;;1.38;;
25854;SDS011;13680;49.936;11.344;2022-08-02T14:43:01;1.50;;;1.40;;
25854;SDS011;13680;49.936;11.344;2022-08-02T14:45:27;1.75;;;1.30;;
25854;SDS011;13680;49.936;11.344;2022-08-02T14:47:54;1.52;;;1.38;;
25854;SDS011;13680;49.936;11.344;2022-08-02T14:50:20;4.38;;;1.80;;
25854;SDS011;13680;49.936;11.344;2022-08-02T14:52:46;3.10;;;1.27;;
25854;SDS011;13680;49.936;11.344;2022-08-02T14:55:13;1.95;;;1.20;;
25854;SDS011;13680;49.936;11.344;2022-08-02T14:57:39;2.10;;;1.30;;
25854;SDS011;13680;49.936;11.344;2022-08-02T15:00:04;5.28;;;1.52;;
25854;SDS011;13680;49.936;11.344;2022-08-02T15:02:31;3.47;;;1.30;;
25854;SDS011;13680;49.936;11.344;2022-08-02T15:04:56;2.13;;;1.35;;
25854;SDS011;13680;49.936;11.344;2022-08-02T15:07:22;1.55;;;1.38;;
25854;SDS011;13680;49.936;11.344;2022-08-02T15:09:47;1.90;;;1.30;;
25854;SDS011;13680;49.936;11.344;2022-08-02T15:12:13;2.15;;;1.48;;
25854;SDS011;13680;49.936;11.344;2022-08-02T15:14:39;2.65;;;1.20;;
25854;SDS011;13680;49.936;11.344;2022-08-02T15:17:05;3.05;;;1.50;;
25854;SDS011;13680;49.936;11.344;2022-08-02T15:19:32;1.73;;;1.48;;
25854;SDS011;13680;49.936;11.344;2022-08-02T15:21:58;1.98;;;1.60;;